26 septembre 2022

Temps Code Temps Temp. Vue Base cloud Vent METAR/SPECI
00:30
V
11 °C 10 km+ 3.600 ft 220° 220° 3 kt METAR LFLC 252230Z AUTO 22003KT 180V260 9999 SCT026 BKN036 OVC060 11/10 Q1016 NOSIG
00:00
V
11 °C 10 km+ 6.200 ft 310° 310° 3 kt METAR LFLC 252200Z AUTO 31003KT 9999 FEW023 SCT030 OVC062 11/10 Q1016 NOSIG

25 septembre 2022

Temps Code Temps Temp. Vue Base cloud Vent METAR/SPECI
23:30
V
12 °C 10 km+ 6.200 ft 300° 300° 3 kt METAR LFLC 252130Z AUTO 30003KT 9999 FEW024 BKN062 12/09 Q1016 NOSIG
23:00
V
13 °C 10 km+ 6.200 ft 330° 330° 3 kt METAR LFLC 252100Z AUTO 33003KT 290V360 9999 FEW036 BKN062 13/10 Q1016 NOSIG
22:30
V
13 °C 10 km+ 6.200 ft 310° 310° 3 kt METAR LFLC 252030Z AUTO 31003KT 9999 OVC062 13/10 Q1016 NOSIG
22:00
V
13 °C 10 km+ 6.200 ft 300° 300° 3 kt METAR LFLC 252000Z AUTO 30003KT 9999 FEW030 OVC062 13/10 Q1016 NOSIG
21:30
V
13 °C 10 km+ 6.000 ft 310° 310° 3 kt METAR LFLC 251930Z AUTO 31003KT 280V350 9999 FEW020 OVC060 13/10 Q1016 NOSIG
21:00
V
13 °C 10 km+ 6.000 ft 340° 340° 3 kt METAR LFLC 251900Z AUTO 34003KT 9999 FEW027 OVC060 13/11 Q1016 NOSIG
20:30
V
13 °C 10 km+ 5.800 ft 010° 010° 4 kt METAR LFLC 251830Z AUTO 01004KT 9999 FEW022 OVC058 13/11 Q1015 NOSIG
20:00
V
14 °C 10 km+ 4.600 ft 340° 340° 4 kt METAR LFLC 251800Z AUTO 34004KT 9999 BKN046 OVC056 14/11 Q1015 NOSIG
19:30
V
14 °C 10 km+ 4.700 ft Var Var 3 kt METAR LFLC 251730Z AUTO VRB03KT 9999 FEW024/// SCT039/// BKN047/// //////CB 14/11 Q1015 BECMG BKN030
19:00
V
14 °C 10 km+ 3.000 ft 010° 010° 4 kt METAR LFLC 251700Z AUTO 01004KT 9999 -RA SCT023 BKN030 BKN039 14/11 Q1015 TEMPO SHRA SCT050TCU
18:30
V
15 °C 10 km+ 3.100 ft 060° 060° 2 kt METAR LFLC 251630Z AUTO 06002KT 9999 SCT024/// BKN031/// BKN045/// //////TCU 15/11 Q1015 TEMPO SHRA
18:00
I
15 °C 4,5 km 3.200 ft 010° 010° 3 kt METAR LFLC 251600Z AUTO 01003KT 340V050 9999 4500 FEW023/// BKN032/// BKN044/// //////TCU 15/12 Q1014 TEMPO SHRA
17:30
V
15 °C 10 km+ 4.300 ft 030° 030° 4 kt METAR LFLC 251530Z AUTO 03004KT 010V070 9999 FEW024/// BKN043/// BKN058/// ///TCU 15/12 Q1014 TEMPO SHRA
17:00
M
15 °C 10 km+ 2.500 ft 330° 330° 5 kt METAR LFLC 251500Z AUTO 33005KT 260V070 9999 FEW019/// BKN025/// BKN047/// //////TCU 15/11 Q1015 TEMPO SHRA
16:30
V
15 °C 10 km+ 4.500 ft 350° 350° 4 kt METAR LFLC 251430Z AUTO 35004KT 310V030 9999 FEW019/// SCT031/// BKN045/// //////CB 15/12 Q1014 TEMPO SHRA
16:00
V
15 °C 10 km+ 3.100 ft 340° 340° 6 kt METAR LFLC 251400Z AUTO 34006KT 310V010 9999 SCT021/// BKN031/// BKN045/// //////TCU 15/12 Q1015 TEMPO SHRA
15:30
V
15 °C 10 km+ 6.200 ft 350° 350° 3 kt METAR LFLC 251330Z AUTO 35003KT 320V050 9999 FEW044/// BKN062/// OVC084/// //////CB 15/11 Q1014 TEMPO SHRA
15:00
V
14 °C 10 km+ 5.400 ft Var Var 2 kt METAR LFLC 251300Z AUTO VRB02KT 9999 BKN054/// OVC072/// //////TCU 14/11 Q1014 TEMPO SHRA BKN040
14:30
V
14 °C 10 km+ 4.500 ft 320° 320° 5 kt METAR LFLC 251230Z AUTO 32005KT 280V360 9999 -RA SCT021/// SCT034/// BKN045/// ///TCU 14/11 Q1015 TEMPO SHRA BKN040
14:00
M
15 °C 10 km+ 2.100 ft 040° 040° 5 kt METAR LFLC 251200Z AUTO 04005KT 350V100 9999 FEW016/// BKN021/// BKN029/// //////TCU 15/12 Q1015 BECMG BKN040
13:30
M
16 °C 10 km+ 2.900 ft 030° 030° 7 kt METAR LFLC 251130Z AUTO 03007KT 350V110 9999 SCT016/// SCT021/// BKN029/// //////TCU 16/12 Q1014 BECMG BKN040
13:00
V
16 °C 10 km+ 4.200 ft 050° 050° 7 kt METAR LFLC 251100Z AUTO 05007KT 020V080 9999 SCT017/// SCT027/// BKN042/// ///TCU 16/12 Q1014 TEMPO BKN008
12:30
V
16 °C 10 km+ 3.400 ft 040° 040° 5 kt METAR LFLC 251030Z AUTO 04005KT 9999 SCT017/// SCT023/// BKN034/// ///CB 16/13 Q1014 TEMPO BKN008
12:00
M
15 °C 10 km+ 1.400 ft 350° 350° 5 kt METAR LFLC 251000Z AUTO 35005KT 310V020 9999 FEW009/// BKN014/// BKN023/// //////CB 15/12 Q1014 TEMPO 4000 RA BKN008
11:30
M
15 °C 10 km+ 2.000 ft Var Var 2 kt METAR LFLC 250930Z AUTO VRB02KT 9999 SCT008/// BKN020/// BKN029/// //////CB 15/12 Q1015 TEMPO 4000 RA BKN008
11:00
V
13 °C 10 km+ 4.500 ft Var Var 1 kt METAR LFLC 250900Z AUTO VRB01KT 9999 FEW008/// SCT032/// BKN045/// ///TCU 13/12 Q1015 TEMPO 4000 RA BKN011 SCT020TCU
10:30
M
13 °C 10 km+ 2.500 ft Var Var 2 kt METAR LFLC 250830Z AUTO VRB02KT 9999 -RA FEW006/// BKN025/// BKN031/// //////TCU 13/12 Q1014 TEMPO 4000 RA BKN011 SCT020TCU
10:00
I
12 °C 3,6 km 2.800 ft Var 000° 0 kt METAR LFLC 250800Z AUTO 00000KT 9999 3600 FEW006/// BKN028/// OVC036/// //////TCU 12/12 Q1014 TEMPO 4000 RA BKN011 SCT020TCU
09:30
V
12 °C 10 km+ 3.200 ft Var 000° 0 kt METAR LFLC 250730Z AUTO 00000KT 9999 BKN032/// OVC038/// //////TCU 12/12 Q1014 TEMPO 4000 RA BKN011 SCT020TCU
09:00
V
12 °C 10 km+ 3.100 ft Var Var 1 kt METAR LFLC 250700Z AUTO VRB01KT 9999 BKN031/// OVC038/// //////TCU 12/11 Q1014 TEMPO 4000 RA BKN011 SCT020TCU
08:30
V
12 °C 10 km+ 3.400 ft 050° 050° 2 kt METAR LFLC 250630Z AUTO 05002KT 9999 FEW006/// BKN034/// OVC044/// //////TCU 12/11 Q1014 TEMPO 4000 RA BKN011 SCT020TCU
08:00
V
12 °C 10 km+ 4.200 ft Var Var 2 kt METAR LFLC 250600Z AUTO VRB02KT 9999 FEW035/// BKN042/// BKN049/// //////TCU 12/11 Q1014 TEMPO 4000 RA BKN011 SCT020TCU
07:30
V
12 °C 10 km+ 3.900 ft 150° 150° 3 kt METAR LFLC 250530Z AUTO 15003KT 9999 BKN039 BKN052 BKN068 12/11 Q1013 TEMPO 4000 RA BKN011 SCT020TCU
07:00
V
12 °C 10 km+ 4.100 ft Var Var 2 kt METAR LFLC 250500Z AUTO VRB02KT 9999 FEW011/// BKN041/// BKN058/// //////TCU 12/11 Q1013 TEMPO 4000 RA BKN008 SCT020TCU
06:30
V
12 °C 10 km+ 5.400 ft Var Var 3 kt METAR LFLC 250430Z AUTO VRB03KT 9999 FEW045/// OVC054/// //////TCU 12/11 Q1013 TEMPO 4000 RA BKN008 SCT020TCU
06:00
V
12 °C 10 km+ 5.000 ft 250° 250° 2 kt METAR LFLC 250400Z AUTO 25002KT 9999 OVC050/// //////TCU 12/11 Q1013 TEMPO 4000 RA BKN008 SCT020TCU
05:30
V
12 °C 10 km+ 4.900 ft 090° 090° 3 kt METAR LFLC 250330Z AUTO 09003KT 9999 FEW041/// BKN049/// BKN076/// ///TCU 12/11 Q1013 TEMPO 4000 RA BKN008 SCT020TCU
05:00
V
12 °C 10 km+ 7.600 ft Var 000° 0 kt METAR LFLC 250300Z AUTO 00000KT 9999 FEW041/// BKN076/// BKN110/// //////TCU 12/11 Q1013 TEMPO 4000 RA BKN008 SCT020TCU
04:30
V
12 °C 10 km+ 7.800 ft Var 000° 0 kt METAR LFLC 250230Z AUTO 00000KT 9999 SCT054/// OVC078/// //////TCU 12/11 Q1013 TEMPO 4000 RA BKN008 SCT020TCU
04:00
V
12 °C 10 km+ 5.800 ft 020° 020° 2 kt METAR LFLC 250200Z AUTO 02002KT 9999 FEW041 BKN058 OVC074 12/11 Q1013 TEMPO 4000 RA BKN008 SCT020TCU
03:30
V
12 °C 10 km+ 4.100 ft 130° 130° 1 kt METAR LFLC 250130Z AUTO 13001KT 9999 BKN041 BKN047 OVC074 12/12 Q1014 TEMPO 4000 RA BKN008 SCT020TCU
03:00
V
11 °C 10 km+ 7.200 ft 110° 110° 2 kt METAR LFLC 250100Z AUTO 11002KT 9999 FEW043 SCT052 OVC072 11/11 Q1014 TEMPO 4000 RA BKN008 SCT020TCU
02:30
V
12 °C 10 km+ 7.400 ft 120° 120° 2 kt METAR LFLC 250030Z AUTO 12002KT 9999 SCT054/// BKN074/// BKN120/// ///TCU 12/11 Q1014 TEMPO 4000 RA BKN008 SCT020TCU
02:00
V
12 °C 10 km+ - 090° 090° 2 kt METAR LFLC 250000Z AUTO 09002KT 9999 ///TCU 12/12 Q1014 TEMPO 4000 RA BKN008 SCT020TCU
01:30
V
12 °C 10 km+ - 130° 130° 3 kt METAR LFLC 242330Z AUTO 13003KT 9999 //////TCU 12/12 Q1014 TEMPO 4000 RA BKN008 SCT020TCU
01:00
V
13 °C 10 km+ 6.400 ft 150° 150° 2 kt METAR LFLC 242300Z AUTO 15002KT 9999 -RA FEW040/// SCT047/// BKN064/// ///TCU 13/12 Q1014 TEMPO 4000 RA BKN010 OVC035
00:30
V
13 °C 10 km+ 4.800 ft 180° 180° 2 kt METAR LFLC 242230Z AUTO 18002KT 9999 -RA SCT042/// BKN048/// OVC060/// //////CB 13/12 Q1014 TEMPO 4000 RA BKN010 OVC035
00:00
V
13 °C 10 km+ 5.400 ft Var 000° 0 kt METAR LFLC 242200Z AUTO 00000KT 9999 FEW048/// BKN054/// BKN070/// //////TCU 13/12 Q1014 TEMPO SHRA

24 septembre 2022

Temps Code Temps Temp. Vue Base cloud Vent METAR/SPECI
23:30
V
13 °C 10 km+ 4.800 ft 060° 060° 3 kt METAR LFLC 242130Z AUTO 06003KT 9999 BKN048/// BKN060/// BKN100/// //////CB 13/12 Q1014 TEMPO SHRA
23:00
V
13 °C 10 km+ 4.400 ft 060° 060° 4 kt METAR LFLC 242100Z AUTO 06004KT 9999 BKN044/// BKN070/// BKN096/// //////CB 13/11 Q1014 TEMPO SHRA
22:30
V
14 °C 10 km+ 6.600 ft 020° 020° 4 kt METAR LFLC 242030Z AUTO 02004KT 9999 FEW041/// BKN066/// OVC084/// //////TCU 14/11 Q1014 TEMPO SHRA
22:00
V
15 °C 10 km+ 5.600 ft Var Var 2 kt METAR LFLC 242000Z AUTO VRB02KT 9999 FEW041/// BKN056/// BKN068/// ///CB 15/10 Q1014 TEMPO SHRA
21:30
V
14 °C 10 km+ 5.200 ft 040° 040° 4 kt METAR LFLC 241930Z AUTO 04004KT 340V070 9999 FEW045/// BKN052/// OVC092/// //////CB 14/12 Q1013 TEMPO SHRA
21:00
V
14 °C 10 km+ 5.600 ft 130° 130° 2 kt METAR LFLC 241900Z AUTO 13002KT 9999 BKN056/// BKN074/// OVC088/// //////TCU 14/12 Q1013 TEMPO 4000 TSRA SCT040CB BKN045
20:30
V
14 °C 10 km+ 7.400 ft 010° 010° 2 kt METAR LFLC 241830Z AUTO 01002KT 9999 SCT052/// BKN074/// BKN088/// //////CB 14/12 Q1013 TEMPO 4000 TSRA
20:00
V
14 °C 10 km+ 6.800 ft Var Var 2 kt METAR LFLC 241800Z AUTO VRB02KT 9999 FEW050/// BKN068/// BKN100/// //////CB 14/12 Q1013 TEMPO 4000 TSRA
19:30
V
15 °C 10 km+ 6.600 ft Var Var 1 kt METAR LFLC 241730Z AUTO VRB01KT 9999 FEW052/// OVC066/// //////CB 15/12 Q1012 TEMPO 4000 TSRA
19:00
V
15 °C 10 km+ 5.800 ft 070° 070° 8 kt METAR LFLC 241700Z AUTO 07008KT 9999 FEW018/// BKN058/// BKN074/// //////CB 15/12 Q1012 TEMPO 4000 TSRA
18:30
V
16 °C 10 km+ 5.800 ft 120° 120° 5 kt METAR LFLC 241630Z AUTO 12005KT 050V170 9999 -RA FEW029/// OVC058/// //////CB 16/12 Q1012 TEMPO 4000 TSRA
18:00
I
17 °C 3,8 km 4.900 ft 330° 330° 5 kt METAR LFLC 241600Z AUTO 33005KT 290V360 9000 3800 RA FEW037/// BKN049/// BKN060/// ///CB 17/12 Q1012 TEMPO 4000 TSRA
17:30
V
19 °C 10 km+ 5.800 ft 090° 090° 6 kt METAR LFLC 241530Z AUTO 09006KT 040V110 9999 BKN058/// BKN078/// BKN100/// //////TCU 19/09 Q1012 TEMPO 4000 TSRA SCT040CB BKN060
17:00
V
19 °C 10 km+ 7.000 ft 110° 110° 7 kt METAR LFLC 241500Z AUTO 11007KT 9999 FEW036/// SCT060/// BKN070/// //////TCU 19/09 Q1012 TEMPO 4000 TSRA SCT040CB BKN060
16:30
V
20 °C 10 km+ 6.000 ft 120° 120° 8 kt METAR LFLC 241430Z AUTO 12008KT 9999 FEW023/// BKN060/// BKN098/// //////TCU 20/09 Q1012 TEMPO 4000 TSRA SCT040CB BKN060
16:00
V
20 °C 10 km+ 5.800 ft 040° 040° 5 kt METAR LFLC 241400Z AUTO 04005KT 010V070 9999 BKN058/// BKN070/// BKN082/// //////CB 20/08 Q1012 TEMPO 4000 TSRA
15:30
V
21 °C 10 km+ 5.800 ft 360° 360° 6 kt METAR LFLC 241330Z AUTO 36006KT 320V030 9999 BKN058 BKN230 21/09 Q1012 TEMPO 4000 TSRA SCT040CB BKN060
15:00
I
22 °C 4,9 km - Var Var 2 kt METAR LFLC 241300Z AUTO VRB02KT 9999 4900 FEW062/// SCT092/// ///CB 22/08 Q1012 TEMPO SHRA
14:30
V
21 °C 10 km+ - Var Var 3 kt METAR LFLC 241230Z AUTO VRB03KT 9999 ///TCU 21/08 Q1012 TEMPO SHRA
14:00
V
21 °C 10 km+ - Var Var 2 kt METAR LFLC 241200Z AUTO VRB02KT 9999 //////CB 21/08 Q1013 TEMPO SHRA
13:30
V
20 °C 10 km+ - 200° 200° 4 kt METAR LFLC 241130Z AUTO 20004KT 140V290 CAVOK 20/09 Q1013 TEMPO SHRA SCT040TCU BKN060
13:00
V
20 °C 10 km+ - 160° 160° 5 kt METAR LFLC 241100Z AUTO 16005KT 090V250 9999 FEW050 20/09 Q1013 TEMPO TSRA SCT055CB
12:30
V
20 °C 10 km+ - 190° 190° 5 kt METAR LFLC 241030Z AUTO 19005KT 140V220 CAVOK 20/10 Q1013 TEMPO TSRA SCT055CB
12:00
V
19 °C 10 km+ - 150° 150° 5 kt METAR LFLC 241000Z AUTO 15005KT 080V210 CAVOK 19/10 Q1014 NOSIG
11:30
V
19 °C 10 km+ - 150° 150° 5 kt METAR LFLC 240930Z AUTO 15005KT 110V200 CAVOK 19/11 Q1014 NOSIG
11:00
V
18 °C 10 km+ - 170° 170° 6 kt METAR LFLC 240900Z AUTO 17006KT 140V200 CAVOK 18/11 Q1014 NOSIG
10:30
V
17 °C 10 km+ - 170° 170° 7 kt METAR LFLC 240830Z AUTO 17007KT 9999 FEW010 17/11 Q1014 NOSIG
10:00
V
16 °C 10 km+ - 160° 160° 6 kt METAR LFLC 240800Z AUTO 16006KT 110V220 CAVOK 16/11 Q1014 NOSIG
09:30
V
14 °C 10 km+ - 150° 150° 6 kt METAR LFLC 240730Z AUTO 15006KT 110V180 CAVOK 14/11 Q1014 NOSIG
09:00
V
13 °C 10 km+ - 180° 180° 9 kt METAR LFLC 240700Z AUTO 18009KT CAVOK 13/11 Q1014 NOSIG
08:30
V
13 °C 10 km+ - 190° 190° 10 kt METAR LFLC 240630Z AUTO 19010KT CAVOK 13/11 Q1014 NOSIG
08:00
V
13 °C 10 km+ - 170° 170° 3 kt METAR LFLC 240600Z AUTO 17003KT 110V210 CAVOK 13/11 Q1014 NOSIG
07:30
V
12 °C 10 km+ - 130° 130° 3 kt METAR LFLC 240530Z AUTO 13003KT 070V190 CAVOK 12/11 Q1014 NOSIG
07:00
V
12 °C 10 km+ - Var Var 2 kt METAR LFLC 240500Z AUTO VRB02KT CAVOK 12/11 Q1014 NOSIG
06:30
V
12 °C 10 km+ - Var Var 2 kt METAR LFLC 240430Z AUTO VRB02KT CAVOK 12/11 Q1014 NOSIG
06:00
V
12 °C 10 km+ - 030° 030° 1 kt METAR LFLC 240400Z AUTO 03001KT CAVOK 12/10 Q1014 NOSIG
05:30
V
12 °C 10 km+ - 220° 220° 3 kt METAR LFLC 240330Z AUTO 22003KT 150V320 CAVOK 12/10 Q1014 NOSIG
05:00
V
12 °C 10 km+ - Var Var 1 kt METAR LFLC 240300Z AUTO VRB01KT CAVOK 12/10 Q1014 NOSIG
04:30
V
13 °C 10 km+ - Var Var 2 kt METAR LFLC 240230Z AUTO VRB02KT CAVOK 13/11 Q1014 NOSIG
04:00
V
12 °C 10 km+ - 020° 020° 1 kt METAR LFLC 240200Z AUTO 02001KT CAVOK 12/11 Q1014 NOSIG
03:30
V
13 °C 10 km+ - Var Var 3 kt METAR LFLC 240130Z AUTO VRB03KT CAVOK 13/11 Q1014 NOSIG
03:00
V
13 °C 10 km+ - Var Var 2 kt METAR LFLC 240100Z AUTO VRB02KT 9999 FEW066 13/11 Q1014 NOSIG
02:30
V
14 °C 10 km+ - 180° 180° 6 kt METAR LFLC 240030Z AUTO 18006KT 150V210 CAVOK 14/11 Q1015 NOSIG
02:00
V
14 °C 10 km+ - 160° 160° 11 kt METAR LFLC 240000Z AUTO 16011KT CAVOK 14/11 Q1015 TEMPO BKN030 FEW040TCU
01:30
V
15 °C 10 km+ - 170° 170° 10 kt METAR LFLC 232330Z AUTO 17010KT 9999 //////TCU 15/12 Q1015 BECMG BKN050
01:00
V
15 °C 10 km+ - 180° 180° 13 kt METAR LFLC 232300Z AUTO 18013KT 9999 ///TCU 15/12 Q1015 TEMPO RA SCT070TCU FEW080CB
00:30
V
15 °C 10 km+ - 200° 200° 10 kt METAR LFLC 232230Z AUTO 20010KT 9999 //////TCU 15/12 Q1015 TEMPO RA SCT070TCU FEW080CB
00:00
V
15 °C 10 km+ 8.200 ft 180° 180° 13 kt METAR LFLC 232200Z AUTO 18013KT 9999 FEW058/// BKN082/// OVC100/// //////CB 15/12 Q1015 TEMPO RA

23 septembre 2022

Temps Code Temps Temp. Vue Base cloud Vent METAR/SPECI
23:30
V
15 °C 10 km+ 10.000 ft 190° 190° 12 kt METAR LFLC 232130Z AUTO 19012KT 160V220 9999 FEW050/// OVC100/// //////CB 15/13 Q1016 TEMPO RA
23:00
V
16 °C 10 km+ 9.800 ft 180° 180° 16 kt METAR LFLC 232100Z AUTO 18016KT 9999 SCT054/// BKN098/// BKN110/// ///TCU 16/12 Q1016 TEMPO RA SCT070TCU FEW080CB
22:30
V
16 °C 10 km+ 11.000 ft 180° 180° 18 kt METAR LFLC 232030Z AUTO 18018KT 9999 FEW054/// BKN110/// //////CB 16/12 Q1015 TEMPO RA
22:00
V
17 °C 10 km+ 12.000 ft 180° 180° 17 kt METAR LFLC 232000Z AUTO 18017KT 9999 FEW058/// OVC120/// //////TCU 17/12 Q1015 TEMPO RA SCT070TCU FEW080CB
21:30
V
18 °C 10 km+ 6.200 ft 190° 190° 12 kt METAR LFLC 231930Z AUTO 19012KT 9999 BKN062/// BKN084/// OVC100/// //////TCU 18/12 Q1015 TEMPO RA SCT070TCU FEW080CB
21:00
V
18 °C 10 km+ - 170° 170° 3 kt METAR LFLC 231900Z AUTO 17003KT 130V210 9999 //////CB 18/11 Q1015 TEMPO RA
20:30
V
18 °C 10 km+ 12.000 ft Var Var 2 kt METAR LFLC 231830Z AUTO VRB02KT 9999 FEW064 BKN120 18/11 Q1014 TEMPO RA SCT070TCU FEW080CB
20:00
V
19 °C 10 km+ 6.400 ft 020° 020° 2 kt METAR LFLC 231800Z AUTO 02002KT 9999 -RA BKN064/// OVC110/// ///TCU 19/11 Q1014 TEMPO 18010KT RA SCT070TCU FEW080CB
19:30
V
20 °C 10 km+ 11.000 ft 350° 350° 2 kt METAR LFLC 231730Z AUTO 35002KT 9999 FEW012 BKN110 20/11 Q1014 TEMPO 18010KT RA SCT070TCU FEW080CB
19:00
V
21 °C 10 km+ 11.000 ft Var Var 2 kt METAR LFLC 231700Z AUTO VRB02KT 9999 FEW001 BKN110 BKN130 21/11 Q1014 TEMPO SHRA SCT070TCU
18:30
V
22 °C 10 km+ - 310° 310° 4 kt METAR LFLC 231630Z AUTO 31004KT 280V340 CAVOK 22/10 Q1014 TEMPO SHRA SCT070TCU
18:00
V
22 °C 10 km+ - 290° 290° 5 kt METAR LFLC 231600Z AUTO 29005KT CAVOK 22/10 Q1015 TEMPO SHRA SCT070TCU
17:30
V
23 °C 10 km+ 13.000 ft 280° 280° 4 kt METAR LFLC 231530Z AUTO 28004KT 240V330 9999 FEW064 SCT076 BKN130 23/09 Q1015 TEMPO SHRA SCT070TCU
17:00
V
23 °C 10 km+ 15.000 ft 300° 300° 3 kt METAR LFLC 231500Z AUTO 30003KT 270V350 9999 SCT064 BKN150 23/10 Q1015 TEMPO SHRA SCT070TCU
Données plus anciennes

Nous et des tiers suivons ton comportement sur Internet sur notre site Web à l'aide de cookies. Si tu continues, nous supposons que tu acceptes notre politique en matière de cookies. Apprendre plus